Terminal Aerodrome Forecast
Issued by NWS Lake Charles, LA

Home | Current Version | Previous Version | Text Only | Print | Product List | Glossary On
Versions: 1 2 3 4 5 6 7 8 9 10 11 12 13 14 15 16 17 18 19 20 21 22 23 24 25 26 27
000
FTUS44 KLCH 252332
TAFBPT
TAF
KBPT 252332Z 2600/2624 15006KT P6SM FEW016
     FM260700 VRB03KT 5SM BR SCT003 SCT017
     FM260900 VRB03KT 1/2SM FG OVC003
     FM261100 19004KT 2SM BR SCT003
     FM261500 18006KT P6SM FEW035 BKN150=

USA.gov is the U.S. government's official web portal to all federal, state and local government web resources and services.